createdAt,value
2019-03-01T00:04:03.899Z,10.00
2019-03-01T00:09:40.281Z,13.60
2019-03-01T00:15:04.876Z,12.80
2019-03-01T00:20:43.978Z,11.20
2019-03-01T00:26:13.225Z,11.75
2019-03-01T00:32:16.627Z,10.80
2019-03-01T00:38:17.365Z,10.50
2019-03-01T00:44:13.555Z,11.75
2019-03-01T00:49:17.429Z,15.00
2019-03-01T00:54:21.231Z,14.25
2019-03-01T00:59:25.097Z,11.00
2019-03-01T01:04:28.911Z,11.00
2019-03-01T01:09:33.949Z,13.00
2019-03-01T01:14:37.740Z,13.00
2019-03-01T01:19:41.525Z,12.20
2019-03-01T01:24:45.312Z,12.50
2019-03-01T01:29:49.078Z,10.50
2019-03-01T01:34:52.850Z,11.00
2019-03-01T01:39:56.681Z,10.00
2019-03-01T01:45:00.447Z,10.00
2019-03-01T01:50:05.037Z,11.00
2019-03-01T01:55:08.817Z,10.40
2019-03-01T02:00:12.775Z,10.00
2019-03-01T02:05:16.689Z,10.00
2019-03-01T02:10:20.575Z,9.00
2019-03-01T02:15:24.373Z,10.00
2019-03-01T02:20:28.228Z,10.00
2019-03-01T02:25:32.226Z,10.00
2019-03-01T02:30:36.102Z,9.60
2019-03-01T02:35:39.871Z,9.75
2019-03-01T02:40:43.640Z,9.75
2019-03-01T02:45:47.492Z,8.50
2019-03-01T02:50:51.267Z,9.00
2019-03-01T02:55:55.046Z,9.00
2019-03-01T03:00:58.804Z,8.80
2019-03-01T03:06:20.505Z,9.00
2019-03-01T03:11:24.272Z,9.25
2019-03-01T03:16:28.723Z,8.00
2019-03-01T03:21:32.482Z,9.00
2019-03-01T03:26:36.359Z,8.00
2019-03-01T03:31:40.135Z,8.40
2019-03-01T03:36:43.896Z,9.50
2019-03-01T03:41:47.681Z,8.00
2019-03-01T03:46:51.581Z,8.00
2019-03-01T03:51:55.350Z,7.75
2019-03-01T03:56:59.159Z,7.80
2019-03-01T04:02:03.061Z,8.25
2019-03-01T04:07:06.892Z,7.75
2019-03-01T04:12:10.655Z,7.00
2019-03-01T04:17:14.559Z,8.50
2019-03-01T04:22:18.363Z,8.40
2019-03-01T04:27:22.122Z,7.50
2019-03-01T04:32:25.954Z,6.80
2019-03-01T04:37:30.273Z,6.25
2019-03-01T04:42:34.066Z,7.00
2019-03-01T04:47:37.805Z,7.00
2019-03-01T04:52:41.668Z,7.50
2019-03-01T04:57:45.423Z,7.25
2019-03-01T05:02:49.165Z,7.00
2019-03-01T05:07:52.905Z,8.00
2019-03-01T05:12:57.797Z,8.00
2019-03-01T05:18:01.550Z,7.00
2019-03-01T05:23:05.303Z,7.50
2019-03-01T05:28:09.048Z,7.00
2019-03-01T05:33:12.811Z,7.80
2019-03-01T05:38:21.819Z,8.00
2019-03-01T05:43:22.048Z,7.00
2019-03-01T05:48:25.787Z,7.00
2019-03-01T05:53:29.553Z,8.00
2019-03-01T05:58:38.493Z,6.00
2019-03-01T06:04:15.564Z,8.00
2019-03-01T06:09:42.147Z,6.00
2019-03-01T06:15:14.395Z,7.00
2019-03-01T06:20:41.174Z,6.25
2019-03-01T06:26:10.574Z,7.40
2019-03-01T06:31:59.907Z,6.75
2019-03-01T06:37:20.609Z,7.50
2019-03-01T06:43:11.432Z,5.60
2019-03-01T06:48:24.904Z,6.00
2019-03-01T06:53:28.672Z,6.00
2019-03-01T06:58:40.927Z,7.00
2019-03-01T07:03:47.199Z,6.00
2019-03-01T07:08:50.976Z,5.00
2019-03-01T07:13:54.740Z,6.00
2019-03-01T07:18:58.521Z,7.00
2019-03-01T07:24:02.280Z,4.75
2019-03-01T07:29:06.447Z,6.00
2019-03-01T07:34:10.202Z,6.00
2019-03-01T07:39:13.964Z,5.80
2019-03-01T07:44:17.809Z,5.25
2019-03-01T07:49:21.555Z,5.00
2019-03-01T07:54:25.371Z,21.00
2019-03-01T07:59:33.459Z,22.00
2019-03-01T08:04:34.915Z,19.00
2019-03-01T08:09:41.283Z,17.00
2019-03-01T08:14:44.157Z,14.00
2019-03-01T08:19:47.929Z,15.00
2019-03-01T08:24:51.683Z,11.00
2019-03-01T08:29:55.442Z,12.00
2019-03-01T08:34:59.213Z,7.80
2019-03-01T08:40:03.144Z,7.00
2019-03-01T08:45:07.580Z,7.00
2019-03-01T08:50:13.410Z,7.00
2019-03-01T08:55:18.160Z,7.00
2019-03-01T09:00:26.977Z,6.00
2019-03-01T09:05:29.727Z,7.00
2019-03-01T09:10:33.667Z,6.75
2019-03-01T09:15:37.619Z,6.00
2019-03-01T09:20:41.365Z,6.40
2019-03-01T09:25:45.364Z,6.20
2019-03-01T09:30:49.150Z,5.80
2019-03-01T09:35:57.323Z,4.60
2019-03-01T09:41:04.097Z,5.00
2019-03-01T09:46:06.548Z,4.75
2019-03-01T09:51:11.404Z,7.00
2019-03-01T09:56:15.338Z,7.00
2019-03-01T10:01:19.947Z,4.00
2019-03-01T10:06:23.702Z,4.00
2019-03-01T10:11:27.464Z,6.00
2019-03-01T10:16:31.223Z,6.40
2019-03-01T10:21:34.966Z,5.25
2019-03-01T10:26:38.735Z,6.00
2019-03-01T10:31:42.490Z,5.00
2019-03-01T10:36:46.241Z,6.00
2019-03-01T10:41:49.980Z,6.00
2019-03-01T10:46:53.725Z,5.50
2019-03-01T10:51:57.493Z,6.00
2019-03-01T10:57:01.336Z,6.00
2019-03-01T11:02:05.164Z,4.25
2019-03-01T11:07:08.932Z,6.00
2019-03-01T11:12:12.685Z,4.20
2019-03-01T11:17:16.438Z,4.00
2019-03-01T11:22:20.243Z,6.00
2019-03-01T11:27:24.089Z,5.40
2019-03-01T11:32:27.867Z,6.00
2019-03-01T11:37:31.625Z,4.00
2019-03-01T11:42:35.380Z,3.25
2019-03-01T11:47:39.851Z,4.00
2019-03-01T11:52:43.640Z,4.00
2019-03-01T11:57:47.392Z,4.75
2019-03-01T12:02:51.516Z,4.00
2019-03-01T12:07:55.326Z,4.00
2019-03-01T12:12:59.106Z,4.00
2019-03-01T12:18:03.112Z,4.00
2019-03-01T12:23:06.854Z,3.00
2019-03-01T12:28:10.616Z,5.00
2019-03-01T12:33:14.400Z,4.75
2019-03-01T12:38:18.150Z,4.80
2019-03-01T12:43:21.909Z,4.00
2019-03-01T12:48:25.670Z,7.00
2019-03-01T12:53:29.430Z,6.00
2019-03-01T12:58:33.191Z,7.40
2019-03-01T13:03:36.931Z,5.00
2019-03-01T13:08:40.690Z,6.00
2019-03-01T13:13:44.473Z,6.00
2019-03-01T13:18:51.308Z,7.00
2019-03-01T13:23:55.739Z,8.00
2019-03-01T13:28:59.506Z,8.50
2019-03-01T13:34:03.341Z,8.00
2019-03-01T13:39:10.451Z,7.00
2019-03-01T13:44:13.506Z,7.50
2019-03-01T13:49:17.282Z,7.50
2019-03-01T13:54:21.495Z,7.00
2019-03-01T13:59:25.322Z,7.40
2019-03-01T14:04:29.171Z,8.00
2019-03-01T14:09:34.419Z,8.25
2019-03-01T14:14:38.322Z,8.20
2019-03-01T14:19:43.068Z,8.00
2019-03-01T14:24:46.921Z,7.00
2019-03-01T14:29:53.597Z,6.00
2019-03-01T14:34:56.210Z,7.00
2019-03-01T14:39:59.976Z,7.00
2019-03-01T14:45:06.615Z,4.00
2019-03-01T14:50:11.289Z,5.80
2019-03-01T14:55:19.711Z,7.80
2019-03-01T15:00:53.685Z,6.00
2019-03-01T15:05:57.710Z,6.00
2019-03-01T15:11:07.972Z,4.00
2019-03-01T15:16:12.994Z,4.00
2019-03-01T15:21:17.042Z,6.00
2019-03-01T15:26:23.108Z,5.50
2019-03-01T15:31:26.312Z,5.00
2019-03-01T15:36:30.169Z,6.00
2019-03-01T15:41:35.128Z,4.50
2019-03-01T15:46:38.905Z,6.00
2019-03-01T15:51:45.242Z,5.80
2019-03-01T15:56:49.042Z,3.50
2019-03-01T16:01:52.914Z,4.00
2019-03-01T16:06:56.814Z,6.25
2019-03-01T16:12:00.595Z,3.00
2019-03-01T16:17:04.568Z,3.40
2019-03-01T16:22:08.420Z,4.40
2019-03-01T16:27:15.167Z,4.00
2019-03-01T16:32:17.781Z,4.00
2019-03-01T16:37:22.686Z,4.25
2019-03-01T16:42:27.124Z,5.20
2019-03-01T16:47:30.917Z,4.00
2019-03-01T16:52:34.699Z,5.00
2019-03-01T16:57:38.541Z,5.80
2019-03-01T17:02:43.177Z,4.00
2019-03-01T17:07:47.010Z,3.00
2019-03-01T17:12:52.025Z,6.50
2019-03-01T17:17:56.311Z,7.25
2019-03-01T17:23:03.117Z,8.00
2019-03-01T17:28:05.752Z,7.00
2019-03-01T17:33:12.513Z,7.00
2019-03-01T17:38:15.150Z,6.25
2019-03-01T17:43:19.402Z,7.00
2019-03-01T17:48:23.179Z,7.80
2019-03-01T17:53:26.952Z,8.00
2019-03-01T17:58:30.769Z,9.00
2019-03-01T18:03:34.527Z,7.00
2019-03-01T18:08:39.699Z,7.50
2019-03-01T18:13:43.930Z,7.75
2019-03-01T18:18:49.413Z,5.75
2019-03-01T18:23:53.290Z,9.50
2019-03-01T18:28:57.037Z,4.80
2019-03-01T18:34:00.865Z,6.80
2019-03-01T18:39:10.221Z,5.25
2019-03-01T18:44:14.075Z,5.50
2019-03-01T18:49:19.751Z,7.00
2019-03-01T18:54:23.439Z,7.00
2019-03-01T18:59:27.180Z,7.25
2019-03-01T19:04:30.991Z,8.00
2019-03-01T19:09:36.261Z,5.00
2019-03-01T19:14:40.260Z,5.40
2019-03-01T19:19:44.294Z,9.00
2019-03-01T19:24:50.074Z,6.80
2019-03-01T19:29:53.586Z,8.00
2019-03-01T19:34:58.990Z,7.25
2019-03-01T19:40:03.006Z,6.50
2019-03-01T19:45:07.485Z,8.00
2019-03-01T19:50:13.284Z,5.00
2019-03-01T19:55:17.133Z,5.80
2019-03-01T20:00:22.231Z,8.00
2019-03-01T20:05:27.904Z,5.40
2019-03-01T20:10:32.143Z,8.00
2019-03-01T20:15:35.978Z,7.25
2019-03-01T20:20:39.936Z,8.00
2019-03-01T20:25:43.710Z,8.00
2019-03-01T20:30:47.479Z,8.25
2019-03-01T20:35:51.259Z,9.00
2019-03-01T20:40:55.019Z,8.00
2019-03-01T20:45:58.787Z,8.00
2019-03-01T20:51:02.590Z,7.40
2019-03-01T20:56:06.447Z,8.75
2019-03-01T21:01:10.275Z,8.00
2019-03-01T21:06:14.076Z,8.00
2019-03-01T21:11:17.870Z,7.20
2019-03-01T21:16:21.633Z,7.50
2019-03-01T21:21:25.580Z,7.00
2019-03-01T21:26:30.891Z,8.00
2019-03-01T21:31:35.406Z,6.40
2019-03-01T21:36:40.306Z,4.00
2019-03-01T21:41:44.753Z,7.00
2019-03-01T21:46:49.386Z,6.40
2019-03-01T21:51:55.214Z,7.60
2019-03-01T21:56:58.634Z,7.50
2019-03-01T22:02:02.426Z,6.25
2019-03-01T22:07:06.329Z,5.00
2019-03-01T22:12:10.105Z,5.00
2019-03-01T22:17:14.442Z,5.00
2019-03-01T22:22:18.332Z,5.00
2019-03-01T22:27:25.324Z,7.60
2019-03-01T22:32:29.051Z,4.00
2019-03-01T22:37:32.881Z,7.25
2019-03-01T22:42:36.651Z,6.25
2019-03-01T22:47:40.417Z,5.00
2019-03-01T22:52:44.305Z,5.00
2019-03-01T22:57:48.093Z,5.00
2019-03-01T23:02:51.851Z,4.80
2019-03-01T23:07:56.805Z,4.00
2019-03-01T23:13:01.179Z,4.00
2019-03-01T23:18:05.691Z,4.40
2019-03-01T23:23:10.370Z,4.00
2019-03-01T23:28:14.264Z,3.80
2019-03-01T23:33:18.009Z,5.75
2019-03-01T23:38:21.797Z,4.00
2019-03-01T23:43:27.543Z,7.00
2019-03-01T23:48:31.140Z,5.00
2019-03-01T23:53:34.941Z,4.00
2019-03-01T23:58:38.761Z,3.50
